createdAt,value
2023-06-21T00:00:37.974Z,55.57
2023-06-21T00:03:40.112Z,55.66
2023-06-21T00:06:47.909Z,55.71
2023-06-21T00:09:50.108Z,55.77
2023-06-21T00:12:55.537Z,55.71
2023-06-21T00:15:57.671Z,55.68
2023-06-21T00:18:59.992Z,55.67
2023-06-21T00:22:03.199Z,55.11
2023-06-21T00:25:06.418Z,54.96
2023-06-21T00:28:08.575Z,54.85
2023-06-21T00:31:11.804Z,54.71
2023-06-21T00:34:14.143Z,54.61
2023-06-21T00:37:16.741Z,54.64
2023-06-21T00:40:23.106Z,54.91
2023-06-21T00:43:25.197Z,54.92
2023-06-21T00:46:27.309Z,54.63
2023-06-21T00:49:29.543Z,54.71
2023-06-21T00:52:32.958Z,55.62
2023-06-21T00:55:35.500Z,56.19
2023-06-21T00:58:37.954Z,56.39
2023-06-21T01:01:40.273Z,56.85
2023-06-21T01:04:42.769Z,56.78
2023-06-21T01:08:21.954Z,56.39
2023-06-21T01:11:33.334Z,55.97
2023-06-21T01:14:52.582Z,56.13
2023-06-21T01:17:57.636Z,56.11
2023-06-21T01:21:02.590Z,55.81
2023-06-21T01:24:27.534Z,55.90
2023-06-21T01:28:06.590Z,56.51
2023-06-21T01:31:10.337Z,56.81
2023-06-21T01:34:16.531Z,57.31
2023-06-21T01:37:18.832Z,57.06
2023-06-21T01:40:21.101Z,57.11
2023-06-21T01:43:24.062Z,57.12
2023-06-21T01:46:27.472Z,56.90
2023-06-21T01:49:31.375Z,56.96
2023-06-21T01:52:34.211Z,56.80
2023-06-21T01:55:37.167Z,57.03
2023-06-21T01:58:39.415Z,57.15
2023-06-21T02:01:44.317Z,56.93
2023-06-21T02:04:48.891Z,57.30
2023-06-21T02:07:51.286Z,57.40
2023-06-21T02:10:53.844Z,57.38
2023-06-21T02:13:56.281Z,57.27
2023-06-21T02:16:59.141Z,57.51
2023-06-21T02:20:01.458Z,57.49
2023-06-21T02:23:03.529Z,57.45
2023-06-21T02:26:05.656Z,57.38
2023-06-21T02:29:07.736Z,56.85
2023-06-21T02:32:09.950Z,57.73
2023-06-21T02:35:12.134Z,59.42
2023-06-21T02:38:14.346Z,60.73
2023-06-21T02:41:16.483Z,61.62
2023-06-21T02:44:19.154Z,62.71
2023-06-21T02:47:21.228Z,64.06
2023-06-21T02:50:23.572Z,62.67
2023-06-21T02:53:26.476Z,62.84
2023-06-21T02:56:31.406Z,62.98
2023-06-21T02:59:34.367Z,62.18
2023-06-21T03:02:36.550Z,62.90
2023-06-21T03:05:38.670Z,63.21
2023-06-21T03:08:42.048Z,63.66
2023-06-21T03:11:45.954Z,63.91
2023-06-21T03:14:48.050Z,63.40
2023-06-21T03:17:50.148Z,62.79
2023-06-21T03:20:52.313Z,63.79
2023-06-21T03:23:54.580Z,63.93
2023-06-21T03:26:57.840Z,64.24
2023-06-21T03:30:01.127Z,64.29
2023-06-21T03:33:03.329Z,64.59
2023-06-21T03:36:05.551Z,63.69
2023-06-21T03:39:07.700Z,64.00
2023-06-21T03:42:09.824Z,64.13
2023-06-21T03:45:12.332Z,64.01
2023-06-21T03:48:14.511Z,63.82
2023-06-21T03:51:16.717Z,64.51
2023-06-21T03:54:18.760Z,64.67
2023-06-21T03:57:20.862Z,64.37
2023-06-21T04:00:23.008Z,64.45
2023-06-21T04:03:25.191Z,65.08
2023-06-21T04:06:27.291Z,65.07
2023-06-21T04:09:29.387Z,65.04
2023-06-21T04:12:32.604Z,65.06
2023-06-21T04:15:35.129Z,65.08
2023-06-21T04:18:37.234Z,65.04
2023-06-21T04:21:40.846Z,65.48
2023-06-21T04:24:42.947Z,66.01
2023-06-21T04:27:46.920Z,66.01
2023-06-21T04:30:49.377Z,66.04
2023-06-21T04:33:52.765Z,65.69
2023-06-21T04:36:54.899Z,65.46
2023-06-21T04:40:08.023Z,65.81
2023-06-21T04:43:18.385Z,65.50
2023-06-21T04:46:22.822Z,65.50
2023-06-21T04:49:27.098Z,64.85
2023-06-21T04:52:29.628Z,65.33
2023-06-21T04:55:31.745Z,65.08
2023-06-21T04:58:36.832Z,66.56
2023-06-21T05:01:38.961Z,68.23
2023-06-21T05:04:41.035Z,70.03
2023-06-21T05:07:43.311Z,67.55
2023-06-21T05:10:45.403Z,69.70
2023-06-21T05:13:47.654Z,68.87
2023-06-21T05:16:49.793Z,67.88
2023-06-21T05:19:51.864Z,67.23
2023-06-21T05:22:57.051Z,68.36
2023-06-21T05:25:59.223Z,69.55
2023-06-21T05:29:01.307Z,69.06
2023-06-21T05:32:04.130Z,69.31
2023-06-21T05:35:06.724Z,69.97
2023-06-21T05:38:09.590Z,69.31
2023-06-21T05:41:11.744Z,67.85
2023-06-21T05:44:14.757Z,68.78
2023-06-21T05:47:17.004Z,68.01
2023-06-21T05:50:19.238Z,68.17
2023-06-21T05:53:21.372Z,68.02
2023-06-21T05:56:28.092Z,67.75
2023-06-21T05:59:30.231Z,68.28
2023-06-21T06:02:32.408Z,67.43
2023-06-21T06:05:34.620Z,68.29
2023-06-21T06:08:36.974Z,70.06
2023-06-21T06:11:39.317Z,70.48
2023-06-21T06:14:41.471Z,70.75
2023-06-21T06:17:43.772Z,71.58
2023-06-21T06:20:47.408Z,68.83
2023-06-21T06:23:52.126Z,68.33
2023-06-21T06:26:55.109Z,69.20
2023-06-21T06:29:57.259Z,68.76
2023-06-21T06:32:59.806Z,67.81
2023-06-21T06:36:02.046Z,68.39
2023-06-21T06:39:04.907Z,68.42
2023-06-21T06:42:07.809Z,68.33
2023-06-21T06:45:10.353Z,69.58
2023-06-21T06:48:12.465Z,68.87
2023-06-21T06:51:14.617Z,70.09
2023-06-21T06:54:16.793Z,70.24
2023-06-21T06:57:33.822Z,68.82
2023-06-21T07:00:37.966Z,68.58
2023-06-21T07:03:40.164Z,69.22
2023-06-21T07:06:42.919Z,70.87
2023-06-21T07:09:45.824Z,70.30
2023-06-21T07:12:48.626Z,69.37
2023-06-21T07:15:51.393Z,68.48
2023-06-21T07:18:53.592Z,69.59
2023-06-21T07:21:55.820Z,69.68
2023-06-21T07:24:57.933Z,68.03
2023-06-21T07:28:00.134Z,66.50
2023-06-21T07:31:04.471Z,67.78
2023-06-21T07:34:10.615Z,67.47
2023-06-21T07:37:13.569Z,67.37
2023-06-21T07:40:15.971Z,67.96
2023-06-21T07:43:19.114Z,67.54
2023-06-21T07:46:21.291Z,68.34
2023-06-21T07:49:23.566Z,68.46
2023-06-21T07:52:25.787Z,68.65
2023-06-21T07:55:28.175Z,69.02
2023-06-21T07:58:30.912Z,70.20
2023-06-21T08:01:34.528Z,70.50
2023-06-21T08:04:39.076Z,71.61
2023-06-21T08:07:41.291Z,72.54
2023-06-21T08:10:43.544Z,72.32
2023-06-21T08:13:45.760Z,72.25
2023-06-21T08:16:47.972Z,72.83
2023-06-21T08:19:50.162Z,71.48
2023-06-21T08:22:52.292Z,71.67
2023-06-21T08:25:54.486Z,72.94
2023-06-21T08:28:56.667Z,72.28
2023-06-21T08:31:58.891Z,72.03
2023-06-21T08:35:01.165Z,71.75
2023-06-21T08:38:18.444Z,72.16
2023-06-21T08:41:27.417Z,72.69
2023-06-21T08:44:29.696Z,72.80
2023-06-21T08:47:34.540Z,72.70
2023-06-21T08:50:38.857Z,74.21
2023-06-21T08:53:50.630Z,73.31
2023-06-21T08:57:04.369Z,73.86
2023-06-21T09:00:10.780Z,73.03
2023-06-21T09:03:30.442Z,72.45
2023-06-21T09:06:33.124Z,72.62
2023-06-21T09:09:36.369Z,73.28
2023-06-21T09:12:40.423Z,73.95
2023-06-21T09:15:43.299Z,72.77
2023-06-21T09:18:45.929Z,72.93
2023-06-21T09:21:48.358Z,72.04
2023-06-21T09:24:50.652Z,71.30
2023-06-21T09:27:54.250Z,70.72
2023-06-21T09:30:56.463Z,70.87
2023-06-21T09:33:58.919Z,69.99
2023-06-21T09:37:01.075Z,69.71
2023-06-21T09:40:04.452Z,70.58
2023-06-21T09:43:06.661Z,69.69
2023-06-21T09:46:10.881Z,69.33
2023-06-21T09:49:13.272Z,68.20
2023-06-21T09:52:15.985Z,68.07
2023-06-21T09:55:18.229Z,68.27
2023-06-21T09:58:20.492Z,67.78
2023-06-21T10:01:24.388Z,66.47
2023-06-21T10:04:26.757Z,66.02
2023-06-21T10:07:29.383Z,66.65
2023-06-21T10:10:34.176Z,67.17
2023-06-21T10:13:40.060Z,66.34
2023-06-21T10:16:42.432Z,67.89
2023-06-21T10:19:46.443Z,67.49
2023-06-21T10:22:53.100Z,67.02
2023-06-21T10:25:59.188Z,68.04
2023-06-21T10:29:04.519Z,67.81
2023-06-21T10:32:07.812Z,64.39
2023-06-21T10:35:16.877Z,64.71
2023-06-21T10:38:42.169Z,64.31
2023-06-21T10:41:44.839Z,63.37
2023-06-21T10:44:47.260Z,63.18
2023-06-21T10:47:50.172Z,62.87
2023-06-21T10:50:53.395Z,62.98
2023-06-21T10:53:56.206Z,62.73
2023-06-21T10:56:58.764Z,62.28
2023-06-21T11:00:08.761Z,62.13
2023-06-21T11:03:17.060Z,61.79
2023-06-21T11:06:29.221Z,61.89
2023-06-21T11:09:32.994Z,62.18
2023-06-21T11:12:38.470Z,62.02
2023-06-21T11:15:42.123Z,61.96
2023-06-21T11:18:56.421Z,61.66
2023-06-21T11:21:58.754Z,61.53
2023-06-21T11:25:17.323Z,61.04
2023-06-21T11:28:26.568Z,60.84
2023-06-21T11:31:38.794Z,60.69
2023-06-21T11:35:01.536Z,60.48
2023-06-21T11:38:03.708Z,60.24
2023-06-21T11:41:44.090Z,60.04
2023-06-21T11:44:46.724Z,59.83
2023-06-21T11:48:03.966Z,59.75
2023-06-21T11:51:10.618Z,59.59
2023-06-21T11:54:12.784Z,59.38
2023-06-21T11:57:16.566Z,59.17
2023-06-21T12:00:18.919Z,59.04
2023-06-21T12:03:23.631Z,59.33
2023-06-21T12:06:26.822Z,59.21
2023-06-21T12:09:29.033Z,58.98
2023-06-21T12:12:31.185Z,58.83
2023-06-21T12:15:33.663Z,58.88
2023-06-21T12:18:37.811Z,58.91
2023-06-21T12:21:40.396Z,58.63
2023-06-21T12:24:42.648Z,58.43
2023-06-21T12:28:15.082Z,58.31
2023-06-21T12:31:19.241Z,58.32
2023-06-21T12:34:22.267Z,58.03
2023-06-21T12:37:24.468Z,57.71
2023-06-21T12:40:26.848Z,57.49
2023-06-21T12:43:41.871Z,57.51
2023-06-21T12:46:44.022Z,57.70
2023-06-21T12:49:48.476Z,57.34
2023-06-21T12:53:01.174Z,57.33
2023-06-21T12:56:13.082Z,57.30
2023-06-21T12:59:15.695Z,57.39
2023-06-21T13:02:19.129Z,57.27
2023-06-21T13:05:21.277Z,57.20
2023-06-21T13:08:24.844Z,57.09
2023-06-21T13:11:28.059Z,57.24
2023-06-21T13:14:30.281Z,57.93
2023-06-21T13:17:32.710Z,58.01
2023-06-21T13:20:37.464Z,58.20
2023-06-21T13:23:39.752Z,58.33
2023-06-21T13:26:41.885Z,58.03
2023-06-21T13:29:44.053Z,57.88
2023-06-21T13:32:46.299Z,57.27
2023-06-21T13:35:48.593Z,57.47
2023-06-21T13:38:50.859Z,57.24
2023-06-21T13:41:54.035Z,57.20
2023-06-21T13:44:56.228Z,57.11
2023-06-21T13:47:58.437Z,56.67
2023-06-21T13:51:00.692Z,56.66
2023-06-21T13:54:02.868Z,56.36
2023-06-21T13:57:07.226Z,56.40
2023-06-21T14:00:19.186Z,56.36
2023-06-21T14:03:21.428Z,56.26
2023-06-21T14:06:23.690Z,56.18
2023-06-21T14:09:25.844Z,56.02
2023-06-21T14:12:28.336Z,55.97
2023-06-21T14:15:30.523Z,55.71
2023-06-21T14:18:46.308Z,55.69
2023-06-21T14:21:49.027Z,55.74
2023-06-21T14:24:51.356Z,55.69
2023-06-21T14:27:53.633Z,55.56
2023-06-21T14:30:57.739Z,55.50
2023-06-21T14:34:00.379Z,55.47
2023-06-21T14:37:02.555Z,55.36
2023-06-21T14:40:05.818Z,55.43
2023-06-21T14:43:07.963Z,55.63
2023-06-21T14:46:10.429Z,55.70
2023-06-21T14:49:13.020Z,55.74
2023-06-21T14:52:17.001Z,55.62
2023-06-21T14:55:19.424Z,55.39
2023-06-21T14:58:21.578Z,55.29
2023-06-21T15:01:23.733Z,55.25
2023-06-21T15:04:25.905Z,55.19
2023-06-21T15:07:28.066Z,55.26
2023-06-21T15:10:30.544Z,55.30
2023-06-21T15:13:32.998Z,55.39
2023-06-21T15:16:44.957Z,55.49
2023-06-21T15:19:48.125Z,55.55
2023-06-21T15:22:50.524Z,55.59
2023-06-21T15:25:52.656Z,55.58
2023-06-21T15:28:54.839Z,55.55
2023-06-21T15:31:57.097Z,55.58
2023-06-21T15:35:00.235Z,55.54
2023-06-21T15:38:02.541Z,55.59
2023-06-21T15:41:04.778Z,55.60
2023-06-21T15:44:07.070Z,55.57
2023-06-21T15:47:09.412Z,55.55
2023-06-21T15:50:12.684Z,55.50
2023-06-21T15:53:14.891Z,55.60
2023-06-21T15:56:17.061Z,55.52
2023-06-21T15:59:19.343Z,55.55
2023-06-21T16:02:22.118Z,55.75
2023-06-21T16:05:24.530Z,55.43
2023-06-21T16:08:26.771Z,55.45
2023-06-21T16:11:28.996Z,55.49
2023-06-21T16:14:31.155Z,55.37
2023-06-21T16:17:33.302Z,55.38
2023-06-21T16:20:35.462Z,55.28
2023-06-21T16:23:37.764Z,55.26
2023-06-21T16:26:39.910Z,55.29
2023-06-21T16:29:42.685Z,55.26
2023-06-21T16:32:44.887Z,55.24
2023-06-21T16:35:47.935Z,55.26
2023-06-21T16:38:50.200Z,55.21
2023-06-21T16:41:53.115Z,55.18
2023-06-21T16:44:55.232Z,55.20
2023-06-21T16:47:57.497Z,55.12
2023-06-21T16:50:59.702Z,55.18
2023-06-21T16:54:01.890Z,55.09
2023-06-21T16:57:04.814Z,55.10
2023-06-21T17:00:08.805Z,55.12
2023-06-21T17:03:11.380Z,55.18
2023-06-21T17:06:13.734Z,55.16
2023-06-21T17:09:16.014Z,55.16
2023-06-21T17:12:18.127Z,55.20
2023-06-21T17:15:20.307Z,55.07
2023-06-21T17:18:22.443Z,55.15
2023-06-21T17:21:24.748Z,55.10
2023-06-21T17:24:26.906Z,55.14
2023-06-21T17:27:29.236Z,55.19
2023-06-21T17:30:31.411Z,55.23
2023-06-21T17:33:33.617Z,55.13
2023-06-21T17:36:35.874Z,55.20
2023-06-21T17:39:38.519Z,55.18
2023-06-21T17:42:40.712Z,55.50
2023-06-21T17:45:42.874Z,55.22
2023-06-21T17:48:45.102Z,55.24
2023-06-21T17:51:47.329Z,55.22
2023-06-21T17:54:49.566Z,55.29
2023-06-21T17:57:53.816Z,55.24
2023-06-21T18:00:57.225Z,55.35
2023-06-21T18:03:59.956Z,55.36
2023-06-21T18:07:02.249Z,55.29
2023-06-21T18:10:04.697Z,55.30
2023-06-21T18:13:07.113Z,55.59
2023-06-21T18:16:09.400Z,55.55
2023-06-21T18:19:11.734Z,55.39
2023-06-21T18:22:15.407Z,55.53
2023-06-21T18:25:18.727Z,55.42
2023-06-21T18:28:20.848Z,55.34
2023-06-21T18:31:22.965Z,55.36
2023-06-21T18:34:25.114Z,55.49
2023-06-21T18:37:27.390Z,55.51
2023-06-21T18:40:29.725Z,55.49
2023-06-21T18:43:32.198Z,55.56
2023-06-21T18:46:34.653Z,55.54
2023-06-21T18:49:36.834Z,55.58
2023-06-21T18:52:39.001Z,55.55
2023-06-21T18:55:41.275Z,55.78
2023-06-21T18:58:43.456Z,55.68
2023-06-21T19:01:45.612Z,55.65
2023-06-21T19:04:48.137Z,55.78
2023-06-21T19:07:50.595Z,55.83
2023-06-21T19:10:52.740Z,55.84
2023-06-21T19:13:54.855Z,55.88
2023-06-21T19:16:56.959Z,55.87
2023-06-21T19:19:59.141Z,55.90
2023-06-21T19:23:01.307Z,56.04
2023-06-21T19:26:03.398Z,56.13
2023-06-21T19:29:05.645Z,56.36
2023-06-21T19:32:08.157Z,56.44
2023-06-21T19:35:18.281Z,56.31
2023-06-21T19:38:20.411Z,56.33
2023-06-21T19:41:23.032Z,56.78
2023-06-21T19:44:25.226Z,57.01
2023-06-21T19:47:29.510Z,57.24
2023-06-21T19:50:32.015Z,57.16
2023-06-21T19:53:34.217Z,57.12
2023-06-21T19:56:42.874Z,57.30
2023-06-21T19:59:45.050Z,57.53
2023-06-21T20:02:47.538Z,57.37
2023-06-21T20:05:51.893Z,57.47
2023-06-21T20:08:54.134Z,57.48
2023-06-21T20:11:56.257Z,57.45
2023-06-21T20:14:59.625Z,57.44
2023-06-21T20:18:01.788Z,57.45
2023-06-21T20:21:04.940Z,57.26
2023-06-21T20:24:07.305Z,57.22
2023-06-21T20:27:09.442Z,57.50
2023-06-21T20:30:11.807Z,57.62
2023-06-21T20:33:14.167Z,57.77
2023-06-21T20:36:16.331Z,57.74
2023-06-21T20:39:20.124Z,57.55
2023-06-21T20:42:30.335Z,57.42
2023-06-21T20:45:32.473Z,57.68
2023-06-21T20:48:34.640Z,57.49
2023-06-21T20:51:37.380Z,58.40
2023-06-21T20:54:39.510Z,58.87
2023-06-21T20:57:41.657Z,59.37
2023-06-21T21:00:45.916Z,59.21
2023-06-21T21:03:48.192Z,59.72
2023-06-21T21:06:50.364Z,60.10
2023-06-21T21:09:52.526Z,60.31
2023-06-21T21:12:55.955Z,60.21
2023-06-21T21:15:58.128Z,60.02
2023-06-21T21:19:00.224Z,60.03
2023-06-21T21:22:02.692Z,60.13
2023-06-21T21:25:05.140Z,59.97
2023-06-21T21:28:08.777Z,60.52
2023-06-21T21:31:11.260Z,60.64
2023-06-21T21:34:13.396Z,60.51
2023-06-21T21:37:15.690Z,60.05
2023-06-21T21:40:17.951Z,60.15
2023-06-21T21:43:20.339Z,60.21
2023-06-21T21:46:22.498Z,60.06
2023-06-21T21:49:24.720Z,60.56
2023-06-21T21:52:26.987Z,61.15
2023-06-21T21:55:29.161Z,61.53
2023-06-21T21:58:31.373Z,61.73
2023-06-21T22:01:34.704Z,61.82
2023-06-21T22:04:37.192Z,62.01
2023-06-21T22:07:39.619Z,61.94
2023-06-21T22:10:42.116Z,61.76
2023-06-21T22:13:45.197Z,62.20
2023-06-21T22:16:50.803Z,62.05
2023-06-21T22:19:53.128Z,61.95
2023-06-21T22:22:55.257Z,62.12
2023-06-21T22:26:06.017Z,62.34
2023-06-21T22:29:08.370Z,62.70
2023-06-21T22:32:11.374Z,62.52
2023-06-21T22:35:13.570Z,62.13
2023-06-21T22:38:15.756Z,62.27
2023-06-21T22:41:18.014Z,62.56
2023-06-21T22:44:20.239Z,62.37
2023-06-21T22:47:23.640Z,62.16
2023-06-21T22:50:26.275Z,62.19
2023-06-21T22:53:28.596Z,62.38
2023-06-21T22:56:30.860Z,62.35
2023-06-21T22:59:33.309Z,62.18
2023-06-21T23:02:35.775Z,61.98
2023-06-21T23:05:37.927Z,62.02
2023-06-21T23:08:40.993Z,61.99
2023-06-21T23:11:43.173Z,62.02
2023-06-21T23:14:47.554Z,62.52
2023-06-21T23:17:51.206Z,62.65
2023-06-21T23:20:54.393Z,62.33
2023-06-21T23:23:56.575Z,62.36
2023-06-21T23:27:07.809Z,62.79
2023-06-21T23:30:35.438Z,62.60
2023-06-21T23:33:39.269Z,62.71
2023-06-21T23:36:43.018Z,63.18
2023-06-21T23:39:54.908Z,62.41
2023-06-21T23:42:57.055Z,62.14
2023-06-21T23:46:03.235Z,62.02
2023-06-21T23:49:05.472Z,61.71
2023-06-21T23:52:08.040Z,61.05
2023-06-21T23:55:12.272Z,60.82
2023-06-21T23:58:14.447Z,62.24
